Time;durP1;ratioP1;P1;durP2;ratioP2;P2;SDS_P1;SDS_P2;PMS_P1;PMS_P2;Temp;Humidity;BMP_temperature;BMP_pressure;BME280_temperature;BME280_humidity;BME280_pressure;Samples;Min_cycle;Max_cycle;Signal;HPM_P1;HPM_P2
2022/02/06 00:03:37;;;;;;;3.23;2.70;;;5.60;96.70;;;;;;10408940;28;20651;-78
2022/02/06 00:08:40;;;;;;;4.50;2.23;;;5.60;96.60;;;;;;10401801;28;20206;-79
2022/02/06 00:13:42;;;;;;;3.00;2.43;;;5.60;96.70;;;;;;10416108;28;20226;-78
2022/02/06 00:18:45;;;;;;;4.87;2.80;;;5.60;96.90;;;;;;10403395;28;20693;-78
2022/02/06 00:23:52;;;;;;;2.30;2.00;;;5.50;96.50;;;;;;10408927;28;20221;-79
2022/02/06 00:29:10;;;;;;;4.57;2.77;;;5.50;96.80;;;;;;10418773;28;20202;-79
2022/02/06 00:34:42;;;;;;;3.20;2.77;;;5.40;96.70;;;;;;10398287;28;20602;-79
2022/02/06 00:39:41;;;;;;;2.30;2.10;;;5.30;97.00;;;;;;10390826;28;20220;-78
2022/02/06 00:44:44;;;;;;;2.57;2.37;;;5.40;97.40;;;;;;10414616;28;20222;-78
2022/02/06 00:49:46;;;;;;;6.60;2.47;;;5.50;97.80;;;;;;10410622;28;20590;-79
2022/02/06 00:54:50;;;;;;;3.33;2.77;;;5.60;98.20;;;;;;10413255;28;20835;-78
2022/02/06 00:59:52;;;;;;;3.73;2.47;;;5.60;97.70;;;;;;10413745;28;20218;-79
2022/02/06 01:04:54;;;;;;;7.93;2.43;;;5.70;97.50;;;;;;10416292;28;20237;-78
2022/02/06 01:09:57;;;;;;;3.50;2.13;;;5.70;97.30;;;;;;10408799;28;20224;-78
2022/02/06 01:15:06;;;;;;;3.80;2.40;;;5.70;97.00;;;;;;10413552;28;20222;-79
2022/02/06 01:20:15;;;;;;;5.30;2.90;;;5.70;96.80;;;;;;10383263;28;20316;-79
2022/02/06 01:25:25;;;;;;;9.13;2.60;;;5.70;97.00;;;;;;10399319;28;20271;-77
2022/02/06 01:30:34;;;;;;;3.77;2.20;;;5.70;97.00;;;;;;10397664;28;20198;-78
2022/02/06 01:35:42;;;;;;;5.60;2.20;;;5.80;96.90;;;;;;10395519;28;20562;-78
2022/02/06 01:40:58;;;;;;;3.93;2.80;;;5.80;96.90;;;;;;10401247;28;20225;-77
2022/02/06 01:46:17;;;;;;;2.53;2.33;;;5.70;97.10;;;;;;10405145;28;20268;-79
2022/02/06 02:02:28;;;;;;;4.03;2.10;;;5.90;98.30;;;;;;10409108;28;20222;-80
2022/02/06 02:08:14;;;;;;;5.37;2.17;;;6.00;98.20;;;;;;10410188;28;20231;-79
2022/02/06 02:13:29;;;;;;;8.20;2.70;;;6.20;97.00;;;;;;10415521;28;20194;-80
2022/02/06 02:24:13;;;;;;;4.33;2.07;;;6.20;96.70;;;;;;10402739;28;20218;-77
2022/02/06 02:45:37;;;;;;;2.60;2.07;;;6.10;96.40;;;;;;10411542;28;20226;-77
2022/02/06 02:50:43;;;;;;;2.73;2.13;;;6.00;96.40;;;;;;10404435;28;20247;-78
2022/02/06 02:55:59;;;;;;;5.20;2.50;;;5.90;96.50;;;;;;10406760;28;20574;-78
2022/02/06 03:01:07;;;;;;;3.57;2.30;;;5.90;96.70;;;;;;10414764;28;20221;-77
2022/02/06 03:06:10;;;;;;;7.87;2.53;;;5.80;97.30;;;;;;10404617;28;20272;-78
2022/02/06 03:11:13;;;;;;;5.70;3.07;;;5.90;96.80;;;;;;10414480;28;20206;-78
2022/02/06 03:16:24;;;;;;;6.47;2.20;;;5.90;97.00;;;;;;10413443;28;20244;-78
2022/02/06 03:21:28;;;;;;;6.17;2.67;;;5.80;96.60;;;;;;10418239;28;20635;-79
2022/02/06 03:26:32;;;;;;;3.37;2.30;;;5.80;96.60;;;;;;10419488;28;20301;-78
2022/02/06 03:31:34;;;;;;;4.20;2.20;;;5.70;97.50;;;;;;10408107;28;20248;-78
2022/02/06 03:36:36;;;;;;;5.60;2.30;;;5.80;97.90;;;;;;10415411;28;20218;-77
2022/02/06 03:41:53;;;;;;;4.20;2.40;;;5.90;97.80;;;;;;10410255;28;20235;-78
2022/02/06 03:47:07;;;;;;;2.60;1.90;;;5.90;98.10;;;;;;10384332;28;20276;-79
2022/02/06 03:52:09;;;;;;;4.27;2.37;;;6.10;98.10;;;;;;10417217;28;20205;-77
2022/02/06 03:57:12;;;;;;;3.27;2.40;;;6.20;97.60;;;;;;10415668;28;20233;-79
2022/02/06 04:02:14;;;;;;;3.00;2.20;;;6.30;97.80;;;;;;10406687;28;20592;-79
2022/02/06 04:07:16;;;;;;;3.30;2.37;;;6.30;98.10;;;;;;10415156;28;20680;-79
2022/02/06 04:12:22;;;;;;;3.10;2.10;;;6.40;97.50;;;;;;10414728;28;20198;-80
2022/02/06 04:17:28;;;;;;;2.47;1.97;;;6.50;96.70;;;;;;10417094;28;20222;-78
2022/02/06 04:22:30;;;;;;;3.43;2.23;;;6.50;97.60;;;;;;10416024;28;20221;-78
2022/02/06 04:27:34;;;;;;;3.60;1.97;;;6.60;97.20;;;;;;10417131;28;20304;-79
2022/02/06 04:32:36;;;;;;;3.47;2.30;;;6.60;96.60;;;;;;10414679;28;20201;-79
2022/02/06 04:37:44;;;;;;;4.40;2.10;;;6.60;96.80;;;;;;10412489;28;20248;-78
2022/02/06 04:43:12;;;;;;;3.00;1.93;;;6.70;97.30;;;;;;10397997;28;20228;-79
2022/02/06 05:15:16;;;;;;;3.67;2.20;;;6.70;96.50;;;;;;10380541;28;20226;-77
2022/02/06 05:20:57;;;;;;;3.47;2.00;;;6.70;96.50;;;;;;10417348;28;20220;-77
2022/02/06 05:31:34;;;;;;;5.27;2.90;;;6.60;96.30;;;;;;10406179;28;20200;-78
2022/02/06 05:36:36;;;;;;;4.30;2.57;;;6.60;96.10;;;;;;10402397;28;20309;-78
2022/02/06 05:41:38;;;;;;;3.80;1.97;;;6.60;96.70;;;;;;10407404;28;20218;-78
2022/02/06 05:46:42;;;;;;;2.80;1.87;;;6.70;96.60;;;;;;10406740;28;20226;-77
2022/02/06 05:51:46;;;;;;;5.50;2.67;;;6.70;96.80;;;;;;10409104;28;20204;-79
2022/02/06 05:56:48;;;;;;;3.07;2.30;;;6.70;97.50;;;;;;10387425;28;20230;-78
2022/02/06 06:01:51;;;;;;;5.20;2.20;;;6.70;96.50;;;;;;10409456;28;20516;-79
2022/02/06 06:06:53;;;;;;;6.70;2.13;;;6.80;96.40;;;;;;10411630;28;20233;-80
2022/02/06 06:11:55;;;;;;;7.33;2.37;;;6.80;96.40;;;;;;10416717;28;20232;-79
2022/02/06 06:16:59;;;;;;;3.93;2.47;;;6.80;96.50;;;;;;10413067;28;20708;-80
2022/02/06 06:22:05;;;;;;;2.23;1.90;;;6.70;96.50;;;;;;10415559;28;20234;-80
2022/02/06 06:27:07;;;;;;;4.37;2.33;;;6.70;96.40;;;;;;10416603;28;20236;-79
2022/02/06 06:32:11;;;;;;;4.60;2.40;;;6.60;96.70;;;;;;10417545;28;20198;-79
2022/02/06 06:37:13;;;;;;;4.17;1.93;;;6.70;96.60;;;;;;10420239;28;20252;-78
2022/02/06 06:42:16;;;;;;;2.77;2.10;;;6.70;96.70;;;;;;10413725;28;20225;-78
2022/02/06 06:47:19;;;;;;;3.83;2.70;;;6.80;96.70;;;;;;10410147;28;20228;-79
2022/02/06 06:52:21;;;;;;;4.03;2.00;;;6.80;96.70;;;;;;10420778;28;20560;-77
2022/02/06 06:57:27;;;;;;;4.53;2.50;;;6.80;96.80;;;;;;10417660;28;20694;-80
2022/02/06 07:02:31;;;;;;;5.70;2.63;;;6.80;97.00;;;;;;10426205;28;20222;-80
2022/02/06 07:07:33;;;;;;;5.10;2.97;;;6.80;96.70;;;;;;10400323;28;20689;-78
2022/02/06 07:12:35;;;;;;;6.73;2.50;;;6.90;96.90;;;;;;10396408;28;20198;-79
2022/02/06 07:17:39;;;;;;;2.50;2.20;;;6.90;97.00;;;;;;10414774;28;20228;-80
2022/02/06 07:22:44;;;;;;;4.93;2.27;;;6.90;96.80;;;;;;10414902;28;20234;-80
2022/02/06 07:27:48;;;;;;;4.33;2.10;;;6.90;96.50;;;;;;10415803;28;20268;-77
2022/02/06 07:32:52;;;;;;;4.70;2.33;;;6.90;96.90;;;;;;10411274;28;20288;-78
2022/02/06 07:37:55;;;;;;;6.73;2.00;;;7.00;96.50;;;;;;10410899;28;20228;-78
2022/02/06 07:42:57;;;;;;;3.80;2.83;;;7.00;96.70;;;;;;10412620;28;20655;-78
2022/02/06 07:48:09;;;;;;;2.50;1.93;;;7.00;96.50;;;;;;10408457;28;20232;-79
2022/02/06 07:53:11;;;;;;;3.80;2.37;;;7.10;96.40;;;;;;10404406;28;20205;-79
2022/02/06 07:58:13;;;;;;;4.33;2.73;;;7.10;97.10;;;;;;10415536;28;20206;-79
2022/02/06 08:08:25;;;;;;;5.20;2.20;;;7.20;96.70;;;;;;10395557;28;20282;-83
2022/02/06 08:13:38;;;;;;;3.53;2.13;;;7.20;96.70;;;;;;10379228;28;20204;-81
2022/02/06 08:18:41;;;;;;;4.93;2.23;;;7.30;97.30;;;;;;10380148;28;20199;-81
2022/02/06 08:23:45;;;;;;;6.10;2.40;;;7.40;96.80;;;;;;10382103;28;20233;-81
2022/02/06 08:28:47;;;;;;;3.10;2.10;;;7.50;96.10;;;;;;10394004;28;20210;-81
2022/02/06 08:33:49;;;;;;;6.50;2.50;;;7.50;96.60;;;;;;10370253;28;20219;-82
2022/02/06 08:38:53;;;;;;;2.97;1.73;;;7.50;96.40;;;;;;10374450;28;20216;-81
2022/02/06 08:43:55;;;;;;;3.73;1.90;;;7.60;96.60;;;;;;10377791;28;20236;-84
2022/02/06 08:48:57;;;;;;;4.60;2.60;;;7.80;96.50;;;;;;10378047;28;20222;-84
2022/02/06 08:54:01;;;;;;;3.53;2.00;;;7.90;96.60;;;;;;10382553;28;20218;-84
2022/02/06 08:59:03;;;;;;;2.90;1.73;;;8.00;96.40;;;;;;10363030;28;20225;-83
2022/02/06 09:04:06;;;;;;;2.77;1.50;;;8.20;96.00;;;;;;10377328;28;20686;-82
2022/02/06 09:09:11;;;;;;;3.40;2.00;;;8.30;95.90;;;;;;10377699;28;20206;-83
2022/02/06 09:14:17;;;;;;;3.97;2.07;;;8.40;95.70;;;;;;10363066;28;20242;-83
2022/02/06 09:19:19;;;;;;;2.90;2.20;;;8.40;95.80;;;;;;10365910;28;20205;-83
2022/02/06 09:24:26;;;;;;;5.60;2.13;;;8.50;95.70;;;;;;10358815;28;20413;-82
2022/02/06 09:29:28;;;;;;;5.07;2.50;;;8.50;95.60;;;;;;10357491;28;20230;-83
2022/02/06 09:39:38;;;;;;;3.47;2.20;;;8.50;96.10;;;;;;10360886;28;20234;-82
2022/02/06 09:44:42;;;;;;;4.13;2.20;;;8.30;96.40;;;;;;10354777;28;20218;-82
2022/02/06 09:49:45;;;;;;;5.90;2.10;;;8.40;96.90;;;;;;10380081;28;20709;-85
2022/02/06 09:54:49;;;;;;;5.43;2.40;;;8.50;96.30;;;;;;10376889;28;20600;-82
2022/02/06 09:59:53;;;;;;;5.47;1.90;;;8.60;95.80;;;;;;10375021;28;20214;-82
2022/02/06 10:04:56;;;;;;;2.17;1.70;;;8.70;96.00;;;;;;10369298;28;20685;-82
2022/02/06 10:10:04;;;;;;;2.97;2.10;;;8.90;96.00;;;;;;10365124;28;20234;-82
2022/02/06 10:15:10;;;;;;;3.60;2.00;;;8.90;96.10;;;;;;10374069;28;20740;-81
2022/02/06 10:20:15;;;;;;;3.07;1.87;;;8.90;96.00;;;;;;10356446;28;20210;-81
2022/02/06 10:25:19;;;;;;;1.87;1.53;;;9.00;95.70;;;;;;10358467;28;20309;-83
2022/02/06 10:30:30;;;;;;;4.20;2.10;;;9.00;95.70;;;;;;10375250;28;20258;-81
2022/02/06 10:35:36;;;;;;;3.50;2.13;;;8.90;95.90;;;;;;10373889;28;20230;-84
2022/02/06 10:40:39;;;;;;;3.30;2.37;;;9.00;96.00;;;;;;10373469;28;20218;-83
2022/02/06 10:45:41;;;;;;;5.73;2.53;;;9.10;95.60;;;;;;10368677;28;20301;-84
2022/02/06 10:50:43;;;;;;;2.80;1.93;;;9.10;95.90;;;;;;10353653;28;20205;-83
2022/02/06 10:55:59;;;;;;;2.50;1.90;;;9.10;95.90;;;;;;10370822;28;20296;-82
2022/02/06 11:01:07;;;;;;;7.90;2.20;;;9.20;95.60;;;;;;10371549;28;20268;-84
2022/02/06 11:06:42;;;;;;;1.93;1.60;;;9.20;96.00;;;;;;10365310;28;20716;-84
2022/02/06 11:11:45;;;;;;;3.70;2.13;;;9.20;96.00;;;;;;10381689;28;20194;-83
2022/02/06 11:16:50;;;;;;;4.70;2.13;;;9.30;96.10;;;;;;10401711;28;20218;-85
2022/02/06 11:22:09;;;;;;;4.97;2.17;;;9.20;95.80;;;;;;10381817;28;20780;-82
2022/02/06 11:27:13;;;;;;;2.70;2.03;;;9.20;96.20;;;;;;10365313;28;20219;-82
2022/02/06 11:32:15;;;;;;;6.50;2.40;;;9.20;96.10;;;;;;10384272;28;20245;-83
2022/02/06 11:48:17;;;;;;;2.40;2.20;;;9.40;96.20;;;;;;10385432;28;20221;-82
2022/02/06 11:53:28;;;;;;;3.30;1.70;;;9.50;96.30;;;;;;10388319;28;20255;-81
2022/02/06 11:58:32;;;;;;;3.30;1.80;;;9.50;96.60;;;;;;10402450;28;20199;-81
2022/02/06 12:03:50;;;;;;;2.37;2.13;;;9.60;97.10;;;;;;10379967;28;20219;-82
2022/02/06 12:09:18;;;;;;;2.97;2.00;;;9.70;97.30;;;;;;10379617;28;20198;-82
2022/02/06 12:14:24;;;;;;;2.53;2.10;;;9.70;96.90;;;;;;10362938;28;20637;-81
2022/02/06 12:19:28;;;;;;;2.67;1.70;;;9.70;97.10;;;;;;10376859;28;20734;-81
2022/02/06 12:24:38;;;;;;;1.93;1.70;;;9.70;97.20;;;;;;10377770;28;20226;-80
2022/02/06 12:29:43;;;;;;;1.70;1.60;;;9.70;97.00;;;;;;10374458;28;20198;-82
2022/02/06 12:40:14;;;;;;;3.90;1.80;;;9.70;96.50;;;;;;10381862;28;20376;-82
2022/02/06 12:45:20;;;;;;;2.40;1.70;;;9.70;96.50;;;;;;10379451;28;20218;-81
2022/02/06 12:50:23;;;;;;;2.50;1.60;;;9.70;96.40;;;;;;10383782;28;20234;-82
2022/02/06 12:55:30;;;;;;;1.60;1.50;;;9.80;96.70;;;;;;10381723;28;20659;-81
2022/02/06 13:00:38;;;;;;;1.77;1.67;;;9.80;96.40;;;;;;10380096;28;20210;-82
2022/02/06 13:05:41;;;;;;;1.70;1.60;;;9.70;96.40;;;;;;10382814;28;20286;-82
2022/02/06 13:10:50;;;;;;;1.80;1.70;;;9.70;96.40;;;;;;10387640;28;20199;-81
2022/02/06 13:16:07;;;;;;;1.40;1.40;;;9.60;97.00;;;;;;10382845;28;20226;-82
2022/02/06 13:21:22;;;;;;;1.70;1.60;;;9.50;98.00;;;;;;10372376;28;20476;-82
2022/02/06 13:26:32;;;;;;;2.50;2.10;;;9.50;98.30;;;;;;10371299;28;20233;-81
2022/02/06 13:32:06;;;;;;;1.73;1.63;;;9.40;98.70;;;;;;10379211;28;20198;-82
2022/02/06 13:37:13;;;;;;;1.63;1.53;;;9.30;99.00;;;;;;10380702;28;20656;-82
2022/02/06 13:42:19;;;;;;;1.60;1.50;;;9.30;99.30;;;;;;10359582;28;20613;-81
2022/02/06 13:47:23;;;;;;;1.50;1.40;;;9.30;99.40;;;;;;10358448;28;20260;-80
2022/02/06 13:52:28;;;;;;;5.23;1.40;;;9.00;99.90;;;;;;10369552;28;20205;-81
2022/02/06 13:57:34;;;;;;;1.53;1.40;;;8.90;99.90;;;;;;10375790;28;20565;-81
2022/02/06 14:02:50;;;;;;;1.60;1.50;;;8.70;99.90;;;;;;10370238;28;20215;-82
2022/02/06 14:08:03;;;;;;;2.13;1.90;;;8.50;99.90;;;;;;10454229;22;20241;-81
2022/02/06 14:13:05;;;;;;;2.40;2.30;;;8.30;99.90;;;;;;10371833;28;20194;-83
2022/02/06 14:18:09;;;;;;;2.30;2.20;;;8.10;99.90;;;;;;10378886;28;20222;-83
2022/02/06 14:23:18;;;;;;;3.10;3.00;;;7.80;99.90;;;;;;10361494;28;20222;-82
2022/02/06 14:28:22;;;;;;;3.87;3.67;;;7.70;99.90;;;;;;10368360;28;20571;-82
2022/02/06 14:33:26;;;;;;;4.50;4.40;;;7.50;99.90;;;;;;10353613;28;20317;-82
2022/02/06 14:38:34;;;;;;;4.10;3.90;;;7.40;99.90;;;;;;10379238;28;20226;-82
2022/02/06 14:43:38;;;;;;;4.03;3.93;;;7.30;99.90;;;;;;10382400;28;20313;-83
2022/02/06 14:48:41;;;;;;;3.07;2.97;;;7.20;99.90;;;;;;10379016;28;20273;-82
2022/02/06 14:53:44;;;;;;;4.63;4.43;;;7.10;99.90;;;;;;10377764;28;20203;-83
2022/02/06 14:58:46;;;;;;;2.60;2.50;;;7.00;99.90;;;;;;10365584;28;20209;-82
2022/02/06 15:03:50;;;;;;;4.00;3.90;;;7.00;99.90;;;;;;10376503;28;20320;-82
2022/02/06 15:08:52;;;;;;;4.10;3.70;;;6.90;99.90;;;;;;10367547;28;20652;-83
2022/02/06 15:13:55;;;;;;;4.70;4.60;;;6.80;99.90;;;;;;10383817;28;20225;-82
2022/02/06 15:19:01;;;;;;;4.50;4.40;;;6.80;99.90;;;;;;10391013;28;20293;-82
2022/02/06 15:24:04;;;;;;;3.47;3.27;;;6.80;99.90;;;;;;10400135;28;20230;-81
2022/02/06 15:29:06;;;;;;;4.83;4.60;;;6.70;99.90;;;;;;10379202;28;20569;-83
2022/02/06 15:34:10;;;;;;;5.03;4.63;;;6.70;99.90;;;;;;10364485;28;20534;-84
2022/02/06 15:39:17;;;;;;;4.10;4.00;;;6.70;99.90;;;;;;10379733;28;20598;-84
2022/02/06 15:44:19;;;;;;;4.23;4.10;;;6.70;99.90;;;;;;10363421;28;20223;-84
2022/02/06 15:49:23;;;;;;;5.80;5.50;;;6.50;99.90;;;;;;10379134;28;20585;-84
2022/02/06 15:54:25;;;;;;;5.70;5.50;;;6.50;99.90;;;;;;10384169;28;20219;-83
2022/02/06 15:59:27;;;;;;;4.80;4.60;;;6.40;99.90;;;;;;10358322;28;20208;-84
2022/02/06 16:04:31;;;;;;;4.07;3.97;;;6.30;99.90;;;;;;10380419;28;20226;-84
2022/02/06 16:09:35;;;;;;;5.00;4.80;;;6.40;99.90;;;;;;10365145;28;20773;-83
2022/02/06 16:14:39;;;;;;;5.20;5.00;;;6.40;99.90;;;;;;10384507;28;20249;-83
2022/02/06 16:19:43;;;;;;;4.73;4.50;;;6.40;99.90;;;;;;10355881;28;20268;-83
2022/02/06 16:24:45;;;;;;;4.83;4.73;;;6.40;99.90;;;;;;10378674;28;20258;-82
2022/02/06 16:29:47;;;;;;;5.30;5.10;;;6.40;99.90;;;;;;10378853;28;20558;-82
2022/02/06 16:34:51;;;;;;;5.30;5.10;;;6.40;99.90;;;;;;10368126;28;20269;-82
2022/02/06 16:39:53;;;;;;;3.90;3.80;;;6.30;99.90;;;;;;10381528;28;20300;-84
2022/02/06 16:44:55;;;;;;;3.37;3.17;;;6.40;99.90;;;;;;10378995;28;20317;-84
2022/02/06 16:49:58;;;;;;;4.17;4.03;;;6.40;99.90;;;;;;10373126;28;20241;-82
2022/02/06 16:55:00;;;;;;;3.80;3.60;;;6.40;99.90;;;;;;10344232;28;20226;-81
2022/02/06 17:00:05;;;;;;;3.97;3.87;;;6.50;99.90;;;;;;10377750;28;20202;-82
2022/02/06 17:05:09;;;;;;;4.00;3.90;;;6.50;99.90;;;;;;10359862;28;20293;-81
2022/02/06 17:10:11;;;;;;;4.60;4.40;;;6.50;99.90;;;;;;10365332;28;20203;-82
2022/02/06 17:15:13;;;;;;;4.70;4.50;;;6.50;99.90;;;;;;10357301;28;20605;-81
2022/02/06 17:20:17;;;;;;;6.10;5.70;;;6.50;99.90;;;;;;10376288;28;20207;-82
2022/02/06 17:25:19;;;;;;;4.70;4.50;;;6.60;99.90;;;;;;10379762;28;20233;-82
2022/02/06 17:30:21;;;;;;;4.50;4.17;;;6.50;99.90;;;;;;10390318;28;20215;-81
2022/02/06 17:35:26;;;;;;;4.53;4.43;;;6.50;99.90;;;;;;10379727;28;20227;-81
2022/02/06 17:40:28;;;;;;;3.77;3.60;;;6.60;99.90;;;;;;10359679;28;20626;-83
2022/02/06 17:45:34;;;;;;;4.70;4.40;;;6.60;99.90;;;;;;10347059;28;20329;-81
2022/02/06 17:50:38;;;;;;;4.40;4.30;;;6.60;99.90;;;;;;10344806;28;20206;-81
2022/02/06 17:55:40;;;;;;;3.50;3.40;;;6.70;99.90;;;;;;10372580;28;20306;-81
2022/02/06 18:00:42;;;;;;;4.73;4.53;;;6.60;99.90;;;;;;10365521;28;20219;-80
2022/02/06 18:05:46;;;;;;;4.90;4.70;;;6.60;99.90;;;;;;10361934;28;20313;-80
2022/02/06 18:10:48;;;;;;;2.80;2.70;;;6.60;99.90;;;;;;10343053;28;20280;-80
2022/02/06 18:15:51;;;;;;;3.83;3.63;;;6.50;99.90;;;;;;10365117;28;20223;-82
2022/02/06 18:20:54;;;;;;;3.73;3.53;;;6.50;99.90;;;;;;10346869;28;20199;-83
2022/02/06 18:25:56;;;;;;;2.80;2.70;;;6.60;99.90;;;;;;10356122;28;20234;-81
2022/02/06 18:30:59;;;;;;;3.10;3.00;;;6.60;99.90;;;;;;10359888;28;20585;-81
2022/02/06 18:36:05;;;;;;;3.10;3.00;;;6.70;99.90;;;;;;10357719;28;20218;-80
2022/02/06 18:41:09;;;;;;;3.20;3.10;;;6.70;99.90;;;;;;10372545;28;20354;-81
2022/02/06 18:46:12;;;;;;;1.77;1.77;;;6.70;99.90;;;;;;10374093;28;20262;-81
2022/02/06 18:51:16;;;;;;;2.80;2.60;;;6.70;99.90;;;;;;10354169;28;20290;-83
2022/02/06 18:56:18;;;;;;;3.70;3.60;;;6.80;99.90;;;;;;10355940;28;20241;-81
2022/02/06 19:01:20;;;;;;;3.67;3.57;;;6.80;99.90;;;;;;10388137;28;20199;-81
2022/02/06 19:06:24;;;;;;;3.90;3.70;;;6.80;99.90;;;;;;10359438;28;20235;-80
2022/02/06 19:11:27;;;;;;;4.40;4.10;;;6.90;99.90;;;;;;10378801;28;20207;-81
2022/02/06 19:16:29;;;;;;;3.43;3.33;;;6.80;99.90;;;;;;10372166;28;20226;-81
2022/02/06 19:21:33;;;;;;;3.50;3.30;;;6.80;99.90;;;;;;10366869;28;20221;-82
2022/02/06 19:26:35;;;;;;;4.60;4.40;;;6.90;99.90;;;;;;10372738;28;20317;-82
2022/02/06 19:31:38;;;;;;;2.70;2.60;;;6.90;99.90;;;;;;10376140;28;20203;-82
2022/02/06 19:36:42;;;;;;;3.33;3.23;;;6.90;99.90;;;;;;10398220;28;20242;-81
2022/02/06 19:41:44;;;;;;;3.53;3.33;;;6.90;99.90;;;;;;10398724;28;20202;-83
2022/02/06 19:46:47;;;;;;;3.17;3.07;;;7.00;99.90;;;;;;10377938;28;20257;-81
2022/02/06 19:51:52;;;;;;;3.13;3.03;;;7.00;99.90;;;;;;10370523;28;20205;-81
2022/02/06 19:56:59;;;;;;;3.10;3.00;;;7.00;99.90;;;;;;10378121;28;20222;-82
2022/02/06 20:02:02;;;;;;;3.03;2.93;;;7.10;99.90;;;;;;10352547;28;20211;-80
2022/02/06 20:07:08;;;;;;;2.60;2.50;;;7.20;99.90;;;;;;10366142;28;20296;-83
2022/02/06 20:12:10;;;;;;;2.80;2.70;;;7.30;99.90;;;;;;10375944;28;20195;-83
2022/02/06 20:17:12;;;;;;;2.90;2.80;;;7.40;99.90;;;;;;10382712;28;20716;-83
2022/02/06 20:22:16;;;;;;;3.27;3.13;;;7.50;99.90;;;;;;10379396;28;20242;-82
2022/02/06 20:27:18;;;;;;;3.10;3.00;;;7.60;99.90;;;;;;10363244;28;20226;-82
2022/02/06 20:32:20;;;;;;;3.80;3.60;;;7.60;99.90;;;;;;10387052;28;20267;-82
2022/02/06 20:37:23;;;;;;;3.20;3.10;;;7.70;99.90;;;;;;10388541;28;20222;-83
2022/02/06 20:42:26;;;;;;;4.20;3.40;;;7.70;99.90;;;;;;10363903;28;20340;-82
2022/02/06 20:47:29;;;;;;;4.07;3.73;;;7.70;99.90;;;;;;10355673;28;20249;-81
2022/02/06 20:52:33;;;;;;;2.60;2.40;;;7.60;99.90;;;;;;10362856;28;20219;-81
2022/02/06 20:57:37;;;;;;;3.37;3.17;;;7.60;99.90;;;;;;10378461;28;20223;-82
2022/02/06 21:02:39;;;;;;;3.00;2.90;;;7.60;99.90;;;;;;10370901;28;20309;-83
2022/02/06 21:07:43;;;;;;;2.60;2.50;;;7.60;99.90;;;;;;10374147;28;20234;-80
2022/02/06 21:12:53;;;;;;;2.83;2.73;;;7.60;99.90;;;;;;10375152;28;20202;-82
2022/02/06 21:17:57;;;;;;;3.20;3.10;;;7.60;99.90;;;;;;10361390;28;20246;-81
2022/02/06 21:23:01;;;;;;;3.00;2.80;;;7.70;99.90;;;;;;10378160;28;20310;-82
2022/02/06 21:28:05;;;;;;;2.90;2.80;;;7.50;99.90;;;;;;10386385;28;20234;-82
2022/02/06 21:33:09;;;;;;;2.63;2.53;;;7.40;99.90;;;;;;10353095;28;20941;-83
2022/02/06 21:38:13;;;;;;;2.40;2.30;;;7.20;99.90;;;;;;10355339;28;20296;-82
2022/02/06 21:43:16;;;;;;;2.50;2.40;;;7.10;99.90;;;;;;10377286;28;20274;-81
2022/02/06 21:48:20;;;;;;;2.20;2.00;;;7.00;99.90;;;;;;10398714;28;20233;-81
2022/02/06 21:53:24;;;;;;;2.30;2.20;;;6.90;99.90;;;;;;10357107;28;20191;-81
2022/02/06 21:58:26;;;;;;;2.60;2.50;;;6.90;99.90;;;;;;10381489;28;20302;-81
2022/02/06 22:03:28;;;;;;;2.30;2.20;;;6.80;99.90;;;;;;10357079;28;20210;-81
2022/02/06 22:08:41;;;;;;;2.60;2.50;;;6.70;99.90;;;;;;10354975;28;20294;-80
2022/02/06 22:24:28;;;;;;;2.50;2.40;;;6.40;99.90;;;;;;10392514;28;20229;-81
2022/02/06 22:29:31;;;;;;;2.67;2.57;;;6.20;99.90;;;;;;10364349;28;20202;-80
2022/02/06 22:34:34;;;;;;;2.70;2.60;;;6.10;99.90;;;;;;10371273;28;20227;-81
2022/02/06 22:39:37;;;;;;;2.40;2.40;;;5.90;99.90;;;;;;10375504;28;20722;-81
2022/02/06 22:44:39;;;;;;;2.73;2.63;;;5.70;99.90;;;;;;10365752;28;20245;-81
2022/02/06 22:49:41;;;;;;;2.50;2.30;;;5.60;99.90;;;;;;10350463;28;20198;-80
2022/02/06 22:54:45;;;;;;;2.20;2.10;;;5.50;99.90;;;;;;10360974;28;20214;-81
2022/02/06 22:59:47;;;;;;;2.50;2.40;;;5.50;99.90;;;;;;10354471;28;20221;-82
2022/02/06 23:04:49;;;;;;;2.50;2.40;;;5.60;99.90;;;;;;10361265;28;20265;-81
2022/02/06 23:09:56;;;;;;;2.70;2.53;;;5.70;99.90;;;;;;10366754;28;20203;-82
2022/02/06 23:14:59;;;;;;;2.57;2.40;;;5.80;99.90;;;;;;10383358;28;20230;-81
2022/02/06 23:20:02;;;;;;;2.40;2.30;;;5.80;99.90;;;;;;10383421;28;20843;-82
2022/02/06 23:25:06;;;;;;;1.63;1.63;;;5.80;99.90;;;;;;10385655;28;20254;-81
2022/02/06 23:30:09;;;;;;;1.80;1.80;;;5.80;99.90;;;;;;10356565;28;20441;-82
2022/02/06 23:35:11;;;;;;;1.80;1.80;;;5.70;99.90;;;;;;10377646;28;20222;-82
2022/02/06 23:40:15;;;;;;;2.20;2.20;;;5.70;99.90;;;;;;10385817;28;20314;-82
2022/02/06 23:45:22;;;;;;;2.20;2.10;;;5.70;99.90;;;;;;10386568;28;20702;-82
2022/02/06 23:50:27;;;;;;;2.10;2.00;;;5.60;99.90;;;;;;10388678;28;20214;-82
2022/02/06 23:55:39;;;;;;;2.00;2.00;;;5.50;99.90;;;;;;10390898;28;20297;-81
